Time;durP1;ratioP1;P1;durP2;ratioP2;P2;SDS_P1;SDS_P2;PMS_P1;PMS_P2;Temp;Humidity;BMP_temperature;BMP_pressure;BME280_temperature;BME280_humidity;BME280_pressure;Samples;Min_cycle;Max_cycle;Signal;HPM_P1;HPM_P2
2022/07/31 00:00:22;;;;;;;;;;;20.80;78.30;;;;;;5057152;28;19924;-74
2022/07/31 00:02:49;;;;;;;;;;;20.70;78.40;;;;;;5041585;28;20414;-75
2022/07/31 00:05:16;;;;;;;;;;;20.70;78.30;;;;;;5055786;28;20061;-75
2022/07/31 00:07:43;;;;;;;;;;;20.70;78.30;;;;;;5057872;28;19981;-74
2022/07/31 00:10:10;;;;;;;;;;;20.70;78.50;;;;;;5045673;28;20344;-74
2022/07/31 00:12:38;;;;;;;;;;;20.60;78.60;;;;;;5061293;28;19967;-75
2022/07/31 00:15:06;;;;;;;;;;;20.60;78.60;;;;;;5053295;28;19924;-75
2022/07/31 00:17:33;;;;;;;;;;;20.60;78.70;;;;;;5058795;28;20797;-75
2022/07/31 00:20:00;;;;;;;;;;;20.60;78.60;;;;;;5057969;28;19925;-75
2022/07/31 00:22:27;;;;;;;;;;;20.50;78.60;;;;;;5057116;28;19932;-75
2022/07/31 00:24:54;;;;;;;;;;;20.50;78.70;;;;;;5058114;28;19964;-75
2022/07/31 00:27:21;;;;;;;;;;;20.50;78.80;;;;;;5044099;28;20044;-75
2022/07/31 00:29:49;;;;;;;;;;;20.40;78.80;;;;;;5059011;28;19928;-75
2022/07/31 00:32:16;;;;;;;;;;;20.40;78.90;;;;;;5039174;28;19939;-75
2022/07/31 00:34:43;;;;;;;;;;;20.40;79.10;;;;;;5059597;28;19928;-75
2022/07/31 00:37:10;;;;;;;;;;;20.40;79.10;;;;;;5041371;28;19932;-75
2022/07/31 00:39:37;;;;;;;;;;;20.40;79.00;;;;;;5061111;28;19954;-75
2022/07/31 00:42:04;;;;;;;;;;;20.30;79.10;;;;;;5054975;28;20020;-74
2022/07/31 00:44:31;;;;;;;;;;;20.30;79.10;;;;;;5059266;28;20295;-75
2022/07/31 00:46:59;;;;;;;;;;;20.30;79.20;;;;;;5061415;28;20019;-75
2022/07/31 00:49:26;;;;;;;;;;;20.20;79.20;;;;;;5041816;28;19943;-74
2022/07/31 00:51:53;;;;;;;;;;;20.20;79.30;;;;;;5038058;28;19925;-74
2022/07/31 00:54:20;;;;;;;;;;;20.20;79.30;;;;;;5068404;28;19931;-75
2022/07/31 00:56:47;;;;;;;;;;;20.20;79.40;;;;;;5057461;28;19931;-74
2022/07/31 00:59:13;;;;;;;;;;;20.10;79.30;;;;;;5057175;28;19939;-75
2022/07/31 01:01:40;;;;;;;;;;;20.10;79.30;;;;;;5054474;28;20302;-75
2022/07/31 01:04:09;;;;;;;;;;;20.10;79.40;;;;;;5053390;28;20011;-75
2022/07/31 01:06:35;;;;;;;;;;;20.10;79.50;;;;;;5043173;28;19924;-75
2022/07/31 01:09:02;;;;;;;;;;;20.00;79.40;;;;;;5040800;28;19955;-75
2022/07/31 01:11:33;;;;;;;;;;;20.00;79.30;;;;;;5056345;28;20363;-75
2022/07/31 01:14:01;;;;;;;;;;;20.00;79.30;;;;;;5041345;28;20387;-75
2022/07/31 01:16:30;;;;;;;;;;;20.00;79.20;;;;;;5056490;28;19940;-75
2022/07/31 01:18:58;;;;;;;;;;;19.90;79.20;;;;;;5060698;28;19951;-74
2022/07/31 01:21:28;;;;;;;;;;;19.90;79.30;;;;;;5042762;28;19929;-74
2022/07/31 01:24:07;;;;;;;;;;;19.80;79.40;;;;;;5061054;28;19970;-75
2022/07/31 01:26:55;;;;;;;;;;;19.80;79.30;;;;;;5058510;28;20032;-75
2022/07/31 01:29:27;;;;;;;;;;;19.80;79.30;;;;;;5047071;28;21597;-75
2022/07/31 01:31:58;;;;;;;;;;;19.80;79.30;;;;;;5039595;28;19998;-74
2022/07/31 01:34:28;;;;;;;;;;;19.70;79.40;;;;;;5046232;28;20395;-75
2022/07/31 01:36:59;;;;;;;;;;;19.70;79.40;;;;;;5042344;28;19940;-75
2022/07/31 01:39:26;;;;;;;;;;;19.70;80.20;;;;;;5052594;28;19940;-75
2022/07/31 01:41:55;;;;;;;;;;;19.70;79.60;;;;;;5055968;28;20326;-75
2022/07/31 01:44:23;;;;;;;;;;;19.60;80.30;;;;;;5038479;28;19924;-75
2022/07/31 01:46:53;;;;;;;;;;;19.60;79.60;;;;;;5061682;28;19931;-75
2022/07/31 01:49:20;;;;;;;;;;;19.60;79.60;;;;;;5059960;28;19924;-75
2022/07/31 01:51:47;;;;;;;;;;;19.50;79.50;;;;;;5041191;28;19929;-75
2022/07/31 01:54:15;;;;;;;;;;;19.50;79.50;;;;;;5057726;28;20259;-75
2022/07/31 01:56:43;;;;;;;;;;;19.50;79.60;;;;;;5039869;28;19924;-75
2022/07/31 01:59:11;;;;;;;;;;;19.50;79.60;;;;;;5063092;28;20431;-75
2022/07/31 02:01:45;;;;;;;;;;;19.40;79.50;;;;;;5054040;28;20463;-75
2022/07/31 02:04:14;;;;;;;;;;;19.40;79.50;;;;;;5061873;28;20390;-76
2022/07/31 02:06:42;;;;;;;;;;;19.40;79.60;;;;;;5060607;28;19925;-74
2022/07/31 02:09:10;;;;;;;;;;;19.40;79.60;;;;;;5040170;28;19924;-74
2022/07/31 02:11:38;;;;;;;;;;;19.30;79.60;;;;;;5065797;28;20390;-74
2022/07/31 02:14:05;;;;;;;;;;;19.30;79.60;;;;;;5060950;28;19933;-75
2022/07/31 02:16:36;;;;;;;;;;;19.30;79.60;;;;;;5054546;28;19924;-75
2022/07/31 02:19:10;;;;;;;;;;;19.20;79.50;;;;;;5045334;28;19932;-75
2022/07/31 02:21:38;;;;;;;;;;;19.20;79.60;;;;;;5043344;28;19940;-75
2022/07/31 02:24:05;;;;;;;;;;;19.20;79.60;;;;;;5065876;28;19933;-74
2022/07/31 02:26:34;;;;;;;;;;;19.20;79.70;;;;;;5057182;28;20026;-75
2022/07/31 02:29:02;;;;;;;;;;;19.10;79.70;;;;;;5041749;28;19929;-74
2022/07/31 02:31:30;;;;;;;;;;;19.10;79.90;;;;;;5039224;28;20363;-75
2022/07/31 02:33:59;;;;;;;;;;;19.00;79.80;;;;;;5055250;28;19928;-75
2022/07/31 02:36:27;;;;;;;;;;;19.00;79.60;;;;;;5041100;28;19931;-75
2022/07/31 02:38:56;;;;;;;;;;;19.00;79.60;;;;;;5040761;28;20023;-75
2022/07/31 02:41:24;;;;;;;;;;;18.90;79.50;;;;;;5056696;28;19928;-75
2022/07/31 02:43:53;;;;;;;;;;;18.90;79.60;;;;;;5041046;28;19931;-75
2022/07/31 02:46:21;;;;;;;;;;;18.90;79.70;;;;;;5064594;28;20051;-75
2022/07/31 02:48:50;;;;;;;;;;;18.90;79.80;;;;;;5044110;28;19933;-75
2022/07/31 02:51:18;;;;;;;;;;;;;;;;;;5039194;28;19931;-75
2022/07/31 02:53:46;;;;;;;;;;;18.80;79.50;;;;;;5037884;28;19925;-74
2022/07/31 02:56:15;;;;;;;;;;;18.70;79.90;;;;;;5039497;28;20343;-75
2022/07/31 02:58:42;;;;;;;;;;;18.70;80.10;;;;;;5042624;28;20007;-75
2022/07/31 03:01:17;;;;;;;;;;;18.70;80.20;;;;;;5036058;28;19928;-75
2022/07/31 03:03:44;;;;;;;;;;;18.60;80.50;;;;;;5043047;28;20268;-74
2022/07/31 03:06:11;;;;;;;;;;;18.60;80.60;;;;;;5046977;28;19931;-75
2022/07/31 03:08:38;;;;;;;;;;;18.60;80.60;;;;;;5054223;28;20356;-74
2022/07/31 03:11:06;;;;;;;;;;;18.60;80.70;;;;;;5044692;28;19970;-75
2022/07/31 03:13:35;;;;;;;;;;;18.50;80.50;;;;;;5064270;28;19952;-74
2022/07/31 03:16:03;;;;;;;;;;;18.50;80.60;;;;;;5060528;28;19931;-74
2022/07/31 03:18:31;;;;;;;;;;;18.50;80.60;;;;;;5059867;28;19925;-75
2022/07/31 03:20:57;;;;;;;;;;;18.40;80.90;;;;;;5055549;28;19971;-76
2022/07/31 03:23:26;;;;;;;;;;;18.40;80.90;;;;;;5057790;28;20027;-75
2022/07/31 03:26:05;;;;;;;;;;;18.40;81.10;;;;;;5053752;28;20108;-75
2022/07/31 03:28:35;;;;;;;;;;;18.30;80.60;;;;;;5045122;28;19974;-75
2022/07/31 03:31:02;;;;;;;;;;;18.30;81.30;;;;;;5038531;28;20013;-76
2022/07/31 03:33:30;;;;;;;;;;;18.30;81.40;;;;;;5055004;28;20025;-75
2022/07/31 03:35:57;;;;;;;;;;;18.30;81.50;;;;;;5042251;28;19924;-74
2022/07/31 03:38:24;;;;;;;;;;;18.20;81.30;;;;;;5043448;28;19990;-75
2022/07/31 03:40:52;;;;;;;;;;;18.20;81.20;;;;;;5044411;28;20019;-75
2022/07/31 03:43:19;;;;;;;;;;;18.20;81.20;;;;;;5053396;28;19978;-75
2022/07/31 03:45:48;;;;;;;;;;;18.20;81.10;;;;;;5042728;28;20023;-74
2022/07/31 03:48:16;;;;;;;;;;;;;;;;;;5039617;28;20281;-75
2022/07/31 03:50:43;;;;;;;;;;;18.10;80.50;;;;;;5051473;28;20294;-75
2022/07/31 03:53:10;;;;;;;;;;;18.10;81.20;;;;;;5062910;28;20217;-75
2022/07/31 03:55:41;;;;;;;;;;;18.10;81.30;;;;;;5059342;28;20027;-75
2022/07/31 03:58:08;;;;;;;;;;;18.10;81.10;;;;;;5042340;28;19932;-75
2022/07/31 04:00:35;;;;;;;;;;;18.10;81.30;;;;;;5056060;28;20038;-75
2022/07/31 04:03:06;;;;;;;;;;;18.10;81.20;;;;;;5054066;28;19936;-75
2022/07/31 04:06:03;;;;;;;;;;;18.10;81.30;;;;;;5050555;28;20487;-75
2022/07/31 04:08:31;;;;;;;;;;;18.10;81.10;;;;;;5043988;28;20437;-74
2022/07/31 04:10:58;;;;;;;;;;;18.10;81.10;;;;;;5042475;28;20390;-75
2022/07/31 04:13:25;;;;;;;;;;;18.00;81.10;;;;;;5038543;28;19968;-75
2022/07/31 04:15:52;;;;;;;;;;;18.00;81.20;;;;;;5035138;28;19932;-74
2022/07/31 04:18:21;;;;;;;;;;;18.00;81.20;;;;;;5059462;28;19924;-74
2022/07/31 04:20:49;;;;;;;;;;;18.00;81.20;;;;;;5052962;28;19955;-75
2022/07/31 04:23:16;;;;;;;;;;;17.90;81.20;;;;;;5037892;28;20377;-75
2022/07/31 04:26:06;;;;;;;;;;;17.90;81.30;;;;;;5014032;28;20152;-75
2022/07/31 04:28:43;;;;;;;;;;;17.90;81.50;;;;;;5054081;28;19931;-74
2022/07/31 04:31:09;;;;;;;;;;;17.90;81.50;;;;;;5049195;28;19940;-74
2022/07/31 04:33:42;;;;;;;;;;;17.90;81.60;;;;;;5037654;28;19924;-75
2022/07/31 04:36:10;;;;;;;;;;;17.90;81.50;;;;;;5033659;28;19982;-74
2022/07/31 04:38:37;;;;;;;;;;;17.90;81.70;;;;;;5054679;28;19939;-74
2022/07/31 04:41:04;;;;;;;;;;;17.80;81.20;;;;;;5053278;28;20471;-75
2022/07/31 04:43:31;;;;;;;;;;;17.80;81.40;;;;;;5051488;28;19929;-74
2022/07/31 04:45:58;;;;;;;;;;;17.70;81.40;;;;;;5049922;28;20302;-75
2022/07/31 04:48:25;;;;;;;;;;;17.70;81.70;;;;;;5050508;28;19933;-75
2022/07/31 04:50:53;;;;;;;;;;;17.70;81.80;;;;;;5047268;28;19936;-75
2022/07/31 04:53:20;;;;;;;;;;;17.70;81.80;;;;;;5049080;28;20410;-75
2022/07/31 04:58:29;;;;;;;;;;;17.80;82.00;;;;;;5044823;28;19966;-75
2022/07/31 05:00:56;;;;;;;;;;;17.70;81.70;;;;;;5037227;28;19925;-75
2022/07/31 05:03:23;;;;;;;;;;;17.80;82.00;;;;;;5045484;28;20417;-75
2022/07/31 05:05:50;;;;;;;;;;;17.70;82.10;;;;;;5042102;28;19928;-75
2022/07/31 05:08:18;;;;;;;;;;;17.70;82.00;;;;;;5058307;28;20446;-75
2022/07/31 05:13:32;;;;;;;;;;;17.70;81.80;;;;;;5058635;28;20492;-75
2022/07/31 05:15:59;;;;;;;;;;;17.70;81.70;;;;;;5038434;28;19933;-75
2022/07/31 05:18:26;;;;;;;;;;;17.70;81.50;;;;;;5061302;28;19925;-75
2022/07/31 05:21:12;;;;;;;;;;;17.70;81.70;;;;;;5053911;28;19931;-75
2022/07/31 05:23:56;;;;;;;;;;;17.70;81.60;;;;;;5060081;28;20386;-75
2022/07/31 05:26:35;;;;;;;;;;;17.70;81.50;;;;;;5041133;28;19929;-76
2022/07/31 05:29:02;;;;;;;;;;;17.70;81.60;;;;;;5043204;28;20379;-76
2022/07/31 05:31:30;;;;;;;;;;;17.70;81.70;;;;;;5042499;28;19931;-75
2022/07/31 05:33:58;;;;;;;;;;;17.60;82.00;;;;;;5043053;28;19946;-76
2022/07/31 05:36:25;;;;;;;;;;;17.60;81.40;;;;;;5041565;28;19925;-75
2022/07/31 05:38:52;;;;;;;;;;;17.60;90.20;;;;;;5066057;28;19944;-76
2022/07/31 05:41:47;;;;;;;;;;;17.40;81.50;;;;;;5060793;28;19929;-75
2022/07/31 05:44:46;;;;;;;;;;;17.40;82.40;;;;;;5060680;28;20015;-75
2022/07/31 05:47:13;;;;;;;;;;;17.30;82.90;;;;;;5039896;28;20041;-75
2022/07/31 05:49:40;;;;;;;;;;;17.30;84.00;;;;;;5062285;28;19932;-75
2022/07/31 05:52:07;;;;;;;;;;;17.30;83.50;;;;;;5041516;28;20341;-75
2022/07/31 05:54:34;;;;;;;;;;;17.30;83.70;;;;;;5061401;28;20309;-75
2022/07/31 05:57:20;;;;;;;;;;;17.30;83.70;;;;;;5059828;28;19940;-75
2022/07/31 05:59:47;;;;;;;;;;;17.30;83.80;;;;;;5044268;28;19932;-75
2022/07/31 06:02:14;;;;;;;;;;;17.30;83.90;;;;;;5060444;28;20288;-75
2022/07/31 06:05:01;;;;;;;;;;;17.30;83.90;;;;;;5019934;28;19928;-76
2022/07/31 06:07:29;;;;;;;;;;;17.30;83.90;;;;;;5041124;28;19947;-75
2022/07/31 06:09:56;;;;;;;;;;;17.30;83.90;;;;;;5043100;28;19931;-75
2022/07/31 06:12:25;;;;;;;;;;;17.30;84.00;;;;;;5040117;28;19928;-75
2022/07/31 06:14:52;;;;;;;;;;;17.30;84.00;;;;;;5059887;28;20342;-75
2022/07/31 06:17:31;;;;;;;;;;;17.30;84.00;;;;;;5058181;28;19931;-75
2022/07/31 06:19:58;;;;;;;;;;;17.40;84.20;;;;;;5059352;28;19928;-75
2022/07/31 06:22:25;;;;;;;;;;;17.40;84.20;;;;;;5045425;28;20005;-75
2022/07/31 06:24:53;;;;;;;;;;;17.40;84.30;;;;;;5041727;28;19929;-76
2022/07/31 06:27:21;;;;;;;;;;;17.50;84.40;;;;;;5059021;28;19932;-75
2022/07/31 06:29:49;;;;;;;;;;;17.50;84.40;;;;;;5060459;28;19934;-75
2022/07/31 06:32:16;;;;;;;;;;;17.50;84.30;;;;;;5045199;28;20239;-75
2022/07/31 06:34:43;;;;;;;;;;;17.60;84.40;;;;;;5043513;28;19925;-75
2022/07/31 06:37:11;;;;;;;;;;;17.60;84.40;;;;;;5040215;28;19930;-75
2022/07/31 06:39:37;;;;;;;;;;;17.60;84.30;;;;;;5061694;28;20314;-75
2022/07/31 06:42:30;;;;;;;;;;;17.60;84.40;;;;;;5027477;28;19924;-75
2022/07/31 06:45:05;;;;;;;;;;;17.70;84.50;;;;;;5059543;28;19932;-76
2022/07/31 06:47:52;;;;;;;;;;;17.70;84.60;;;;;;5055780;28;19928;-75
2022/07/31 06:50:48;;;;;;;;;;;17.70;84.60;;;;;;5046776;28;19954;-75
2022/07/31 06:53:35;;;;;;;;;;;17.70;84.60;;;;;;5059575;28;19924;-75
2022/07/31 06:56:02;;;;;;;;;;;17.80;84.70;;;;;;5064793;28;19932;-75
2022/07/31 06:58:30;;;;;;;;;;;17.80;84.70;;;;;;5043095;28;20020;-76
2022/07/31 07:00:59;;;;;;;;;;;17.80;84.80;;;;;;5056533;28;20464;-76
2022/07/31 07:03:26;;;;;;;;;;;17.80;84.80;;;;;;5039623;28;19932;-75
2022/07/31 07:05:52;;;;;;;;;;;17.90;84.90;;;;;;5039816;28;19931;-75
2022/07/31 07:10:45;;;;;;;;;;;17.90;84.80;;;;;;5120735;23;19924;-74
2022/07/31 07:13:26;;;;;;;;;;;17.90;84.90;;;;;;5085712;28;20310;-75
2022/07/31 07:15:53;;;;;;;;;;;18.00;85.10;;;;;;5094469;27;19927;-74
2022/07/31 07:18:25;;;;;;;;;;;18.00;85.30;;;;;;5115532;22;20283;-76
2022/07/31 07:20:54;;;;;;;;;;;18.00;85.20;;;;;;5061020;28;20280;-76
2022/07/31 07:23:22;;;;;;;;;;;18.00;85.20;;;;;;5057276;28;20251;-76
2022/07/31 07:26:08;;;;;;;;;;;18.00;85.20;;;;;;5075355;28;19939;-76
2022/07/31 07:28:36;;;;;;;;;;;18.00;85.20;;;;;;5052528;28;19924;-76
2022/07/31 07:31:06;;;;;;;;;;;18.10;85.40;;;;;;5063649;28;19924;-76
2022/07/31 07:33:36;;;;;;;;;;;18.10;85.30;;;;;;5057414;28;19931;-76
2022/07/31 07:36:03;;;;;;;;;;;18.10;85.50;;;;;;5075956;28;19932;-77
2022/07/31 07:38:30;;;;;;;;;;;18.10;85.40;;;;;;5062499;28;19924;-76
2022/07/31 07:40:57;;;;;;;;;;;18.10;85.50;;;;;;5054455;28;19932;-76
2022/07/31 07:43:24;;;;;;;;;;;18.20;85.80;;;;;;5062153;28;19935;-76
2022/07/31 07:45:51;;;;;;;;;;;18.20;85.90;;;;;;5059128;28;19924;-76
2022/07/31 07:48:17;;;;;;;;;;;18.20;86.00;;;;;;5062177;28;19924;-76
2022/07/31 07:51:06;;;;;;;;;;;18.20;86.00;;;;;;5065307;28;19924;-76
2022/07/31 07:53:56;;;;;;;;;;;18.20;85.90;;;;;;5060175;28;19931;-76
2022/07/31 07:56:25;;;;;;;;;;;18.30;85.50;;;;;;5079264;28;19938;-76
2022/07/31 07:59:12;;;;;;;;;;;18.30;85.20;;;;;;5073459;28;19946;-76
2022/07/31 08:02:14;;;;;;;;;;;18.40;85.00;;;;;;5018634;28;20320;-76
2022/07/31 08:04:42;;;;;;;;;;;18.40;85.20;;;;;;5047546;28;19940;-76
2022/07/31 08:07:10;;;;;;;;;;;18.40;85.10;;;;;;5054122;28;20011;-76
2022/07/31 08:09:38;;;;;;;;;;;18.50;85.20;;;;;;5068539;28;19964;-76
2022/07/31 08:12:43;;;;;;;;;;;18.50;85.30;;;;;;5019044;28;20219;-77
2022/07/31 08:15:31;;;;;;;;;;;18.50;85.20;;;;;;5013768;28;19939;-76
2022/07/31 08:18:16;;;;;;;;;;;18.50;85.10;;;;;;5060902;28;20490;-76
2022/07/31 08:20:43;;;;;;;;;;;18.60;85.10;;;;;;5074713;28;19943;-76
2022/07/31 08:23:11;;;;;;;;;;;18.60;85.10;;;;;;5074335;28;19931;-77
2022/07/31 08:25:39;;;;;;;;;;;18.60;85.20;;;;;;5060702;28;19924;-76
2022/07/31 08:28:06;;;;;;;;;;;18.60;85.10;;;;;;5072989;28;19924;-76
2022/07/31 08:30:34;;;;;;;;;;;18.70;85.20;;;;;;5058188;28;19931;-76
2022/07/31 08:33:01;;;;;;;;;;;18.70;85.20;;;;;;5057223;28;19964;-76
2022/07/31 08:35:36;;;;;;;;;;;18.70;85.00;;;;;;5069496;28;20412;-77
2022/07/31 08:38:03;;;;;;;;;;;18.70;85.20;;;;;;5083001;28;19939;-76
2022/07/31 08:40:33;;;;;;;;;;;18.80;85.40;;;;;;5082444;28;20069;-77
2022/07/31 08:43:00;;;;;;;;;;;18.80;84.90;;;;;;5070842;28;19924;-76
2022/07/31 08:45:28;;;;;;;;;;;18.80;84.80;;;;;;5061793;28;20468;-76
2022/07/31 08:48:12;;;;;;;;;;;18.90;84.50;;;;;;5068023;28;19932;-76
2022/07/31 08:50:46;;;;;;;;;;;18.90;83.70;;;;;;5063260;28;19932;-75
2022/07/31 08:53:36;;;;;;;;;;;19.00;83.40;;;;;;5081842;28;20390;-75
2022/07/31 08:56:14;;;;;;;;;;;19.00;83.60;;;;;;5065240;28;20425;-74
2022/07/31 08:58:42;;;;;;;;;;;19.00;82.60;;;;;;5081920;28;19968;-75
2022/07/31 09:01:11;;;;;;;;;;;19.10;82.20;;;;;;5060605;28;19928;-75
2022/07/31 09:03:38;;;;;;;;;;;19.10;81.90;;;;;;5066597;28;20003;-75
2022/07/31 09:06:06;;;;;;;;;;;19.10;82.40;;;;;;5064585;28;19931;-74
2022/07/31 09:08:34;;;;;;;;;;;19.20;82.30;;;;;;5064690;28;19982;-75
2022/07/31 09:11:03;;;;;;;;;;;19.20;82.40;;;;;;5057633;28;19954;-75
2022/07/31 09:13:33;;;;;;;;;;;19.20;82.40;;;;;;5063691;28;19924;-75
2022/07/31 09:16:01;;;;;;;;;;;19.20;82.50;;;;;;5079079;28;20437;-75
2022/07/31 09:18:30;;;;;;;;;;;19.30;82.60;;;;;;5063183;28;19939;-75
2022/07/31 09:21:06;;;;;;;;;;;19.30;81.80;;;;;;5052659;28;19955;-75
2022/07/31 09:23:43;;;;;;;;;;;19.30;81.70;;;;;;5067030;28;19928;-75
2022/07/31 09:26:09;;;;;;;;;;;19.40;81.70;;;;;;5080960;28;19925;-74
2022/07/31 09:28:39;;;;;;;;;;;19.40;81.60;;;;;;5076493;28;19924;-75
2022/07/31 09:31:07;;;;;;;;;;;19.40;81.10;;;;;;5082949;28;20290;-75
2022/07/31 09:33:52;;;;;;;;;;;19.50;80.70;;;;;;5078930;28;19939;-75
2022/07/31 09:36:39;;;;;;;;;;;19.50;80.40;;;;;;5076237;28;19924;-75
2022/07/31 09:39:42;;;;;;;;;;;19.60;80.10;;;;;;5020528;28;20251;-75
2022/07/31 09:42:36;;;;;;;;;;;19.60;80.20;;;;;;5069372;28;19928;-75
2022/07/31 09:45:20;;;;;;;;;;;19.70;80.00;;;;;;5071036;28;19931;-75
2022/07/31 09:47:46;;;;;;;;;;;19.70;79.40;;;;;;5061226;28;20015;-75
2022/07/31 09:50:14;;;;;;;;;;;19.80;78.80;;;;;;5065561;28;19939;-75
2022/07/31 09:52:41;;;;;;;;;;;19.80;78.60;;;;;;5075973;28;19930;-75
2022/07/31 09:55:09;;;;;;;;;;;19.90;78.60;;;;;;5080216;28;20025;-75
2022/07/31 09:57:37;;;;;;;;;;;19.90;78.40;;;;;;5067040;28;19931;-75
2022/07/31 10:00:05;;;;;;;;;;;19.90;78.20;;;;;;5065657;28;19979;-75
2022/07/31 10:02:43;;;;;;;;;;;20.00;77.70;;;;;;5081578;28;19962;-75
2022/07/31 10:05:12;;;;;;;;;;;20.00;77.80;;;;;;5062252;28;19978;-75
2022/07/31 10:07:40;;;;;;;;;;;20.00;78.00;;;;;;5078152;28;19942;-75
2022/07/31 10:10:19;;;;;;;;;;;20.00;78.50;;;;;;5062737;28;20002;-75
2022/07/31 10:13:00;;;;;;;;;;;20.00;78.50;;;;;;5058255;28;19928;-75
2022/07/31 10:15:28;;;;;;;;;;;20.00;78.60;;;;;;5059867;28;19924;-75
2022/07/31 10:18:17;;;;;;;;;;;20.10;78.60;;;;;;5078336;28;20026;-75
2022/07/31 10:21:07;;;;;;;;;;;20.10;78.30;;;;;;5059997;28;19972;-75
2022/07/31 10:23:47;;;;;;;;;;;20.10;78.10;;;;;;5059169;28;19924;-75
2022/07/31 10:26:15;;;;;;;;;;;20.20;78.10;;;;;;5062679;28;19939;-75
2022/07/31 10:28:43;;;;;;;;;;;20.30;77.40;;;;;;5064066;28;19928;-75
2022/07/31 10:31:11;;;;;;;;;;;20.30;77.10;;;;;;5069820;28;20402;-75
2022/07/31 10:33:41;;;;;;;;;;;20.30;76.50;;;;;;5062622;28;19924;-75
2022/07/31 10:36:28;;;;;;;;;;;20.40;76.80;;;;;;5075678;28;19931;-75
2022/07/31 10:39:16;;;;;;;;;;;20.30;77.00;;;;;;5080758;28;19949;-75
2022/07/31 10:41:58;;;;;;;;;;;20.30;76.90;;;;;;5056052;28;20516;-75
2022/07/31 10:44:30;;;;;;;;;;;20.40;77.10;;;;;;5064367;28;19924;-74
2022/07/31 10:47:12;;;;;;;;;;;20.40;76.70;;;;;;5061615;28;20347;-75
2022/07/31 10:49:57;;;;;;;;;;;20.50;76.70;;;;;;5073082;28;20003;-74
2022/07/31 10:52:28;;;;;;;;;;;20.50;76.20;;;;;;5079590;28;19928;-74
2022/07/31 10:55:16;;;;;;;;;;;20.50;76.30;;;;;;5062928;28;20047;-75
2022/07/31 10:58:06;;;;;;;;;;;20.50;75.80;;;;;;5065534;28;19932;-75
2022/07/31 11:00:52;;;;;;;;;;;20.60;76.20;;;;;;5081591;28;19931;-75
2022/07/31 11:03:22;;;;;;;;;;;20.60;76.20;;;;;;5075947;28;19975;-75
2022/07/31 11:06:17;;;;;;;;;;;20.60;77.60;;;;;;5058875;28;19931;-75
2022/07/31 11:08:56;;;;;;;;;;;20.60;77.20;;;;;;5058257;28;20056;-75
2022/07/31 11:11:52;;;;;;;;;;;20.60;76.80;;;;;;5060367;28;20390;-75
2022/07/31 11:14:41;;;;;;;;;;;20.70;76.50;;;;;;5061911;28;20298;-75
2022/07/31 11:17:31;;;;;;;;;;;20.70;76.80;;;;;;5078712;28;19931;-75
2022/07/31 11:20:21;;;;;;;;;;;20.80;76.90;;;;;;5073220;28;19982;-75
2022/07/31 11:22:59;;;;;;;;;;;20.80;76.60;;;;;;5075250;28;19930;-75
2022/07/31 11:25:28;;;;;;;;;;;20.80;76.80;;;;;;5076857;28;19977;-74
2022/07/31 11:27:55;;;;;;;;;;;20.80;77.20;;;;;;5081026;28;19932;-75
2022/07/31 11:30:22;;;;;;;;;;;20.80;77.50;;;;;;5075996;28;20329;-74
2022/07/31 11:32:50;;;;;;;;;;;20.90;77.40;;;;;;5077835;28;20506;-74
2022/07/31 11:35:27;;;;;;;;;;;20.90;77.40;;;;;;5051836;28;20016;-75
2022/07/31 11:37:53;;;;;;;;;;;20.90;77.10;;;;;;5079266;28;19947;-74
2022/07/31 11:40:22;;;;;;;;;;;20.90;77.20;;;;;;5076855;28;20091;-74
2022/07/31 11:42:49;;;;;;;;;;;21.00;77.30;;;;;;5079698;28;19970;-75
2022/07/31 11:45:16;;;;;;;;;;;21.00;77.20;;;;;;5075828;28;19928;-75
2022/07/31 11:47:43;;;;;;;;;;;21.00;77.20;;;;;;5077821;28;20071;-74
2022/07/31 11:50:11;;;;;;;;;;;21.10;77.60;;;;;;5075196;28;19931;-75
2022/07/31 11:52:42;;;;;;;;;;;21.10;77.90;;;;;;5073139;28;20019;-75
2022/07/31 11:55:09;;;;;;;;;;;21.10;78.30;;;;;;5057253;28;19967;-77
2022/07/31 11:57:38;;;;;;;;;;;21.10;78.00;;;;;;5080940;28;19950;-77
2022/07/31 12:00:12;;;;;;;;;;;21.20;77.60;;;;;;5074225;28;20436;-77
2022/07/31 12:02:43;;;;;;;;;;;21.20;77.90;;;;;;5067328;28;19924;-77
2022/07/31 12:05:12;;;;;;;;;;;21.20;78.20;;;;;;5078372;28;20444;-77
2022/07/31 12:07:40;;;;;;;;;;;21.30;77.90;;;;;;5077138;28;20018;-77
2022/07/31 12:10:08;;;;;;;;;;;21.30;77.70;;;;;;5079086;28;19931;-77
2022/07/31 12:12:36;;;;;;;;;;;21.30;77.60;;;;;;5080784;28;20011;-77
2022/07/31 12:15:14;;;;;;;;;;;21.30;77.80;;;;;;5074252;28;19932;-77
2022/07/31 12:17:41;;;;;;;;;;;21.40;77.80;;;;;;5081911;28;19924;-77
2022/07/31 12:20:11;;;;;;;;;;;21.50;77.70;;;;;;5078452;28;20726;-77
2022/07/31 12:22:38;;;;;;;;;;;21.60;77.70;;;;;;5077449;28;19932;-77
2022/07/31 12:25:08;;;;;;;;;;;21.60;77.80;;;;;;5062067;28;20042;-77
2022/07/31 12:27:35;;;;;;;;;;;21.60;77.80;;;;;;5081371;28;20546;-77
2022/07/31 12:30:12;;;;;;;;;;;21.70;77.90;;;;;;5059794;28;20027;-77
2022/07/31 12:32:40;;;;;;;;;;;21.70;77.90;;;;;;5078687;28;20006;-77
2022/07/31 12:35:07;;;;;;;;;;;21.70;77.50;;;;;;5062027;28;19959;-76
2022/07/31 12:37:42;;;;;;;;;;;21.80;78.10;;;;;;5063298;28;19993;-77
2022/07/31 12:40:09;;;;;;;;;;;21.80;78.20;;;;;;5080178;28;19966;-77
2022/07/31 12:42:38;;;;;;;;;;;21.80;78.40;;;;;;5080569;28;19947;-77
2022/07/31 12:45:05;;;;;;;;;;;21.90;79.20;;;;;;5076430;28;19925;-77
2022/07/31 12:47:34;;;;;;;;;;;21.90;78.20;;;;;;5081808;28;20649;-77
2022/07/31 12:50:04;;;;;;;;;;;22.00;78.50;;;;;;5073827;28;19954;-77
2022/07/31 12:52:33;;;;;;;;;;;22.00;78.80;;;;;;5082783;28;19929;-77
2022/07/31 12:55:01;;;;;;;;;;;22.10;78.70;;;;;;5077443;28;20302;-77
2022/07/31 12:57:28;;;;;;;;;;;22.10;78.30;;;;;;5083417;28;20374;-77
2022/07/31 12:59:55;;;;;;;;;;;22.20;78.50;;;;;;5072635;28;20251;-77
2022/07/31 13:02:22;;;;;;;;;;;22.30;78.10;;;;;;5075025;28;19939;-77
2022/07/31 13:04:49;;;;;;;;;;;22.30;78.60;;;;;;5069694;28;19924;-77
2022/07/31 13:07:17;;;;;;;;;;;22.40;78.50;;;;;;5072527;28;19939;-77
2022/07/31 13:09:44;;;;;;;;;;;22.40;78.70;;;;;;5079484;28;20031;-77
2022/07/31 13:12:11;;;;;;;;;;;22.40;79.00;;;;;;5078539;28;19997;-77
2022/07/31 13:14:38;;;;;;;;;;;22.50;79.00;;;;;;5073090;28;20440;-77
2022/07/31 13:17:06;;;;;;;;;;;;;;;;;;5080450;28;19928;-77
2022/07/31 13:19:33;;;;;;;;;;;22.60;77.70;;;;;;5060831;28;19932;-77
2022/07/31 13:21:59;;;;;;;;;;;22.70;78.80;;;;;;5082843;28;20014;-77
2022/07/31 13:24:28;;;;;;;;;;;22.70;78.60;;;;;;5077598;28;19928;-76
2022/07/31 13:26:57;;;;;;;;;;;22.80;78.30;;;;;;5082246;28;19932;-77
2022/07/31 13:29:24;;;;;;;;;;;22.90;78.10;;;;;;5080647;28;19931;-77
2022/07/31 13:31:54;;;;;;;;;;;22.90;77.90;;;;;;5080407;28;19978;-77
2022/07/31 13:34:24;;;;;;;;;;;23.00;78.10;;;;;;5084511;28;19970;-77
2022/07/31 13:36:50;;;;;;;;;;;23.00;78.10;;;;;;5082464;28;19939;-77
2022/07/31 13:39:17;;;;;;;;;;;23.00;78.20;;;;;;5081388;28;19954;-77
2022/07/31 13:41:45;;;;;;;;;;;23.10;78.00;;;;;;5083995;28;20018;-77
2022/07/31 13:44:12;;;;;;;;;;;23.10;77.90;;;;;;5079294;28;19932;-77
2022/07/31 13:46:39;;;;;;;;;;;23.10;78.20;;;;;;5082923;28;20155;-77
2022/07/31 13:49:09;;;;;;;;;;;23.10;78.50;;;;;;5084621;28;19924;-78
2022/07/31 13:51:36;;;;;;;;;;;23.20;79.00;;;;;;5060855;28;19928;-77
2022/07/31 13:54:03;;;;;;;;;;;23.20;79.00;;;;;;5078264;28;19971;-77
2022/07/31 13:56:30;;;;;;;;;;;23.20;78.80;;;;;;5079826;28;19931;-77
2022/07/31 13:58:59;;;;;;;;;;;23.30;78.60;;;;;;5077228;28;19951;-77
2022/07/31 14:01:26;;;;;;;;;;;23.30;78.70;;;;;;5082011;28;19931;-77
2022/07/31 14:03:52;;;;;;;;;;;23.30;79.00;;;;;;5084141;28;19925;-77
2022/07/31 14:06:19;;;;;;;;;;;23.30;79.20;;;;;;5081975;28;19986;-77
2022/07/31 14:08:46;;;;;;;;;;;23.40;79.20;;;;;;5084376;28;19966;-77
2022/07/31 14:11:13;;;;;;;;;;;23.40;79.30;;;;;;5084003;28;19932;-77
2022/07/31 14:13:40;;;;;;;;;;;23.40;79.60;;;;;;5063915;28;20451;-77
2022/07/31 14:16:08;;;;;;;;;;;23.40;79.20;;;;;;5075903;28;20024;-77
2022/07/31 14:18:35;;;;;;;;;;;23.40;78.60;;;;;;5084921;28;20159;-77
2022/07/31 14:21:05;;;;;;;;;;;23.50;78.90;;;;;;5080230;28;19978;-77
2022/07/31 14:23:32;;;;;;;;;;;23.50;79.10;;;;;;5081025;28;19928;-77
2022/07/31 14:26:01;;;;;;;;;;;23.50;79.10;;;;;;5082275;28;19931;-77
2022/07/31 14:28:28;;;;;;;;;;;23.60;78.80;;;;;;5081274;28;20338;-77
2022/07/31 14:30:55;;;;;;;;;;;23.60;79.20;;;;;;5058761;28;19959;-77
2022/07/31 14:33:23;;;;;;;;;;;23.60;79.20;;;;;;5078060;28;19928;-77
2022/07/31 14:35:50;;;;;;;;;;;23.70;79.00;;;;;;5084686;28;19924;-77
2022/07/31 14:38:18;;;;;;;;;;;23.70;78.70;;;;;;5076553;28;20374;-77
2022/07/31 14:40:45;;;;;;;;;;;23.80;78.10;;;;;;5078543;28;19939;-77
2022/07/31 14:43:11;;;;;;;;;;;23.90;77.30;;;;;;5078649;28;19924;-77
2022/07/31 14:45:38;;;;;;;;;;;23.90;77.90;;;;;;5084632;28;20409;-78
2022/07/31 14:48:06;;;;;;;;;;;23.90;77.40;;;;;;5063748;28;20142;-77